Time;durP1;ratioP1;P1;durP2;ratioP2;P2;SDS_P1;SDS_P2;PMS_P1;PMS_P2;Temp;Humidity;BMP_temperature;BMP_pressure;BME280_temperature;BME280_humidity;BME280_pressure;Samples;Min_cycle;Max_cycle;Signal;HPM_P1;HPM_P2
2022/06/26 00:01:06;;;;;;;4.40;3.67;;;21.20;99.90;;;;;;5068268;28;20274;-76
2022/06/26 00:03:50;;;;;;;5.78;3.55;;;21.20;99.90;;;;;;5066788;28;20240;-76
2022/06/26 00:06:35;;;;;;;4.47;4.03;;;21.10;99.90;;;;;;5067696;28;20186;-75
2022/06/26 00:09:19;;;;;;;8.85;4.35;;;21.10;99.90;;;;;;5063972;28;20641;-76
2022/06/26 00:12:03;;;;;;;8.18;4.40;;;21.10;99.90;;;;;;5068584;28;20680;-77
2022/06/26 00:14:47;;;;;;;5.57;4.60;;;21.10;99.90;;;;;;5066412;28;20189;-76
2022/06/26 00:17:41;;;;;;;6.32;4.53;;;21.00;99.90;;;;;;5066709;28;20233;-77
2022/06/26 00:20:25;;;;;;;5.25;4.72;;;20.90;99.90;;;;;;5058422;28;20257;-76
2022/06/26 00:23:13;;;;;;;6.82;4.70;;;20.90;99.90;;;;;;5064919;28;20214;-76
2022/06/26 00:25:57;;;;;;;5.78;4.80;;;20.90;99.90;;;;;;5066295;28;20198;-76
2022/06/26 00:28:41;;;;;;;7.18;5.30;;;20.80;99.90;;;;;;5066336;28;20248;-76
2022/06/26 00:31:25;;;;;;;5.10;4.60;;;20.80;99.90;;;;;;5066520;28;20231;-76
2022/06/26 00:34:09;;;;;;;7.72;5.07;;;20.80;99.90;;;;;;5069266;28;20268;-76
2022/06/26 00:36:53;;;;;;;11.30;5.22;;;20.70;99.90;;;;;;5066794;28;20244;-76
2022/06/26 00:39:37;;;;;;;6.75;4.82;;;20.70;99.90;;;;;;5068064;28;20210;-75
2022/06/26 00:42:21;;;;;;;10.05;5.00;;;20.60;99.90;;;;;;5058062;28;20217;-74
2022/06/26 00:45:06;;;;;;;5.53;4.70;;;20.50;99.90;;;;;;5067627;28;20190;-75
2022/06/26 00:47:50;;;;;;;5.38;4.43;;;20.60;99.90;;;;;;5064013;28;20187;-76
2022/06/26 00:50:35;;;;;;;6.25;4.68;;;20.60;99.90;;;;;;5066754;28;20639;-76
2022/06/26 00:53:19;;;;;;;7.05;4.90;;;20.50;99.90;;;;;;5057611;28;20636;-75
2022/06/26 00:56:04;;;;;;;9.50;4.32;;;20.50;99.90;;;;;;5059891;28;20202;-75
2022/06/26 00:58:48;;;;;;;9.93;5.40;;;20.50;99.90;;;;;;5063977;28;20280;-75
2022/06/26 01:01:34;;;;;;;7.43;4.80;;;20.50;99.90;;;;;;5073214;28;20189;-76
2022/06/26 01:04:18;;;;;;;11.25;5.55;;;20.40;99.90;;;;;;5067200;28;20177;-75
2022/06/26 01:07:02;;;;;;;11.43;5.18;;;20.40;99.90;;;;;;5066495;28;20236;-76
2022/06/26 01:09:47;;;;;;;6.35;4.70;;;20.40;99.90;;;;;;5061831;28;20742;-78
2022/06/26 01:12:31;;;;;;;5.72;5.05;;;20.30;99.90;;;;;;5065726;28;20221;-76
2022/06/26 01:15:16;;;;;;;6.80;4.40;;;20.30;99.90;;;;;;5062813;28;20212;-76
2022/06/26 01:18:00;;;;;;;4.53;3.97;;;20.20;99.90;;;;;;5067663;28;20221;-75
2022/06/26 01:20:45;;;;;;;4.45;4.05;;;20.20;99.90;;;;;;5069626;28;20190;-74
2022/06/26 01:23:29;;;;;;;5.70;3.72;;;20.20;99.90;;;;;;5071295;28;20217;-76
2022/06/26 01:26:15;;;;;;;4.68;4.10;;;20.20;99.90;;;;;;5078758;28;20181;-75
2022/06/26 01:29:00;;;;;;;6.68;4.32;;;20.20;99.90;;;;;;5064836;28;20672;-77
2022/06/26 01:31:45;;;;;;;9.00;4.47;;;20.20;99.90;;;;;;5068898;28;20206;-76
2022/06/26 01:34:28;;;;;;;5.60;4.45;;;20.10;99.90;;;;;;5065037;28;20225;-76
2022/06/26 01:37:13;;;;;;;5.60;4.30;;;20.10;99.90;;;;;;5067897;28;20291;-77
2022/06/26 01:39:57;;;;;;;9.95;4.90;;;20.10;99.90;;;;;;5069263;28;20257;-75
2022/06/26 01:42:42;;;;;;;6.20;4.97;;;20.00;99.90;;;;;;5067547;28;20275;-75
2022/06/26 01:45:26;;;;;;;5.18;4.68;;;20.00;99.90;;;;;;5064717;28;20665;-75
2022/06/26 01:48:11;;;;;;;6.18;5.28;;;19.90;99.90;;;;;;5060265;28;20677;-75
2022/06/26 01:50:57;;;;;;;5.68;5.15;;;19.90;99.90;;;;;;5070957;28;20202;-76
2022/06/26 01:53:42;;;;;;;5.40;4.88;;;19.90;99.90;;;;;;5070865;28;20293;-76
2022/06/26 01:56:26;;;;;;;10.05;4.97;;;19.80;99.90;;;;;;5069366;28;20194;-76
2022/06/26 01:59:10;;;;;;;7.35;5.22;;;19.80;99.90;;;;;;5071907;28;20253;-77
2022/06/26 02:01:54;;;;;;;6.18;5.60;;;19.80;99.90;;;;;;5066188;28;20568;-76
2022/06/26 02:04:38;;;;;;;6.30;5.57;;;19.80;99.90;;;;;;5071408;28;20182;-76
2022/06/26 02:07:22;;;;;;;6.90;5.63;;;19.80;99.90;;;;;;5064221;28;20232;-76
2022/06/26 02:16:24;;;;;;;7.72;5.70;;;19.70;99.90;;;;;;5065364;28;20265;-75
2022/06/26 02:19:08;;;;;;;5.53;5.10;;;19.60;99.90;;;;;;5067407;28;20198;-78
2022/06/26 02:21:53;;;;;;;6.78;6.20;;;19.60;99.90;;;;;;5055160;28;20252;-74
2022/06/26 02:24:38;;;;;;;6.53;5.90;;;19.50;99.90;;;;;;5070173;28;20193;-75
2022/06/26 02:27:23;;;;;;;6.15;5.55;;;19.50;99.90;;;;;;5062717;28;20266;-75
2022/06/26 02:30:08;;;;;;;6.53;5.88;;;19.50;99.90;;;;;;5067016;28;20178;-77
2022/06/26 02:32:52;;;;;;;10.88;6.20;;;19.50;99.90;;;;;;5065496;28;20286;-74
2022/06/26 02:35:37;;;;;;;9.27;6.40;;;19.40;99.90;;;;;;5070574;28;20669;-76
2022/06/26 02:38:23;;;;;;;7.18;6.47;;;19.40;99.90;;;;;;5069349;28;20313;-76
2022/06/26 02:41:07;;;;;;;8.52;6.53;;;19.40;99.90;;;;;;5067583;28;20190;-77
2022/06/26 02:43:51;;;;;;;6.90;6.28;;;19.40;99.90;;;;;;5056434;28;20209;-77
2022/06/26 02:46:35;;;;;;;10.32;6.85;;;19.40;99.90;;;;;;5069210;28;20194;-75
2022/06/26 02:49:19;;;;;;;9.73;8.38;;;19.30;99.90;;;;;;5065517;28;20190;-76
2022/06/26 02:52:04;;;;;;;8.93;7.50;;;19.30;99.90;;;;;;5064275;28;20209;-76
2022/06/26 02:54:48;;;;;;;9.02;7.50;;;19.20;99.90;;;;;;5069601;28;20291;-76
2022/06/26 02:57:32;;;;;;;8.65;7.65;;;19.20;99.90;;;;;;5069352;28;20220;-75
2022/06/26 03:00:17;;;;;;;7.93;7.22;;;19.20;99.90;;;;;;5062208;28;20263;-76
2022/06/26 03:03:02;;;;;;;8.77;7.65;;;19.10;99.90;;;;;;5068248;28;20246;-76
2022/06/26 03:05:46;;;;;;;8.23;7.53;;;19.00;99.90;;;;;;5071758;28;20315;-76
2022/06/26 03:08:30;;;;;;;8.35;7.65;;;19.00;99.90;;;;;;5072346;28;20178;-77
2022/06/26 03:11:14;;;;;;;8.85;7.35;;;19.00;99.90;;;;;;5063506;28;20182;-75
2022/06/26 03:13:58;;;;;;;9.02;8.23;;;18.90;99.90;;;;;;5068150;28;20666;-77
2022/06/26 03:16:42;;;;;;;11.07;7.50;;;18.90;99.90;;;;;;5068858;28;20651;-75
2022/06/26 03:19:27;;;;;;;8.23;7.43;;;18.90;99.90;;;;;;5077433;28;20212;-77
2022/06/26 03:22:11;;;;;;;10.02;7.40;;;18.90;99.90;;;;;;5067739;28;20206;-76
2022/06/26 03:24:55;;;;;;;8.07;7.33;;;18.90;99.90;;;;;;5063747;28;20251;-75
2022/06/26 03:27:40;;;;;;;8.10;7.28;;;18.90;99.90;;;;;;5064289;28;20252;-77
2022/06/26 03:30:25;;;;;;;7.78;7.00;;;18.90;99.90;;;;;;5064583;28;20181;-76
2022/06/26 03:33:09;;;;;;;8.95;7.63;;;18.80;99.90;;;;;;5067080;28;20236;-76
2022/06/26 03:35:53;;;;;;;8.60;7.80;;;18.80;99.90;;;;;;5067005;28;20194;-75
2022/06/26 03:38:38;;;;;;;8.68;7.78;;;18.70;99.90;;;;;;5066405;28;20244;-76
2022/06/26 03:41:22;;;;;;;14.57;7.90;;;18.70;99.90;;;;;;5066106;28;20226;-75
2022/06/26 03:44:07;;;;;;;8.67;7.87;;;18.70;99.90;;;;;;5062429;28;20193;-75
2022/06/26 03:46:51;;;;;;;9.30;8.40;;;18.70;99.90;;;;;;5067023;28;20181;-75
2022/06/26 03:49:35;;;;;;;8.75;7.95;;;18.70;99.90;;;;;;5062594;28;20610;-75
2022/06/26 03:52:21;;;;;;;9.27;8.27;;;18.60;99.90;;;;;;5063843;28;20711;-76
2022/06/26 03:55:06;;;;;;;9.70;8.80;;;18.70;99.90;;;;;;5061910;28;20214;-75
2022/06/26 03:57:50;;;;;;;10.30;8.10;;;18.70;99.90;;;;;;5064280;28;20214;-76
2022/06/26 04:00:35;;;;;;;9.70;8.80;;;18.60;99.90;;;;;;5061952;28;20240;-76
2022/06/26 04:03:20;;;;;;;15.02;9.02;;;18.60;99.90;;;;;;5065432;28;20205;-76
2022/06/26 04:06:04;;;;;;;9.93;8.83;;;18.70;99.90;;;;;;5062719;28;20198;-76
2022/06/26 04:08:49;;;;;;;11.00;8.30;;;18.70;99.90;;;;;;5064636;28;20206;-76
2022/06/26 04:11:33;;;;;;;9.35;8.55;;;18.70;99.90;;;;;;5065861;28;20212;-75
2022/06/26 04:14:17;;;;;;;11.15;7.93;;;18.80;99.90;;;;;;5068547;28;20210;-76
2022/06/26 04:17:02;;;;;;;8.90;8.07;;;18.80;99.90;;;;;;5068371;28;20565;-76
2022/06/26 04:19:48;;;;;;;10.98;8.30;;;18.80;99.90;;;;;;5067972;28;20579;-77
2022/06/26 04:22:32;;;;;;;9.15;8.25;;;18.80;99.90;;;;;;5064651;28;20260;-76
2022/06/26 04:25:17;;;;;;;9.33;8.00;;;18.80;99.90;;;;;;5062314;28;20255;-77
2022/06/26 04:28:01;;;;;;;8.95;7.60;;;18.90;99.90;;;;;;5066846;28;20237;-77
2022/06/26 04:30:46;;;;;;;8.53;7.73;;;18.90;99.90;;;;;;5062982;28;20202;-74
2022/06/26 04:33:31;;;;;;;9.00;8.10;;;19.00;99.90;;;;;;5063685;28;20237;-73
2022/06/26 04:36:15;;;;;;;10.82;9.15;;;19.00;99.90;;;;;;5066535;28;20753;-75
2022/06/26 04:38:59;;;;;;;10.63;8.80;;;19.10;99.90;;;;;;5065743;28;20214;-76
2022/06/26 04:41:44;;;;;;;9.20;8.38;;;19.10;99.90;;;;;;5058812;28;20185;-75
2022/06/26 04:44:28;;;;;;;9.70;8.70;;;19.10;99.90;;;;;;5063268;28;20182;-76
2022/06/26 04:47:12;;;;;;;11.18;9.70;;;19.20;99.90;;;;;;5065881;28;20249;-76
2022/06/26 04:49:56;;;;;;;10.93;9.93;;;19.20;99.90;;;;;;5059814;28;20322;-76
2022/06/26 04:52:48;;;;;;;11.05;9.25;;;19.20;99.90;;;;;;5062852;28;20241;-76
2022/06/26 04:55:32;;;;;;;11.32;10.20;;;19.30;99.90;;;;;;5065054;28;20206;-74
2022/06/26 04:58:16;;;;;;;10.23;9.32;;;19.40;99.90;;;;;;5059981;28;20212;-75
2022/06/26 05:01:02;;;;;;;12.07;8.88;;;19.40;99.90;;;;;;5066435;28;20561;-76
2022/06/26 05:03:46;;;;;;;12.68;9.13;;;19.50;99.90;;;;;;5064599;28;20255;-75
2022/06/26 05:06:30;;;;;;;10.45;8.23;;;19.60;99.90;;;;;;5067275;28;20210;-75
2022/06/26 05:09:16;;;;;;;11.68;8.30;;;19.70;99.90;;;;;;5064818;28;20711;-75
2022/06/26 05:12:00;;;;;;;8.82;8.07;;;19.70;99.90;;;;;;5065852;28;20209;-75
2022/06/26 05:14:44;;;;;;;9.98;8.07;;;19.90;99.90;;;;;;5067659;28;20252;-75
2022/06/26 05:17:29;;;;;;;9.35;8.20;;;19.90;99.90;;;;;;5062110;28;20175;-76
2022/06/26 05:20:14;;;;;;;10.98;7.90;;;20.00;99.90;;;;;;5072068;28;20205;-77
2022/06/26 05:22:58;;;;;;;9.05;8.07;;;20.10;99.90;;;;;;5065051;28;20209;-76
2022/06/26 05:25:43;;;;;;;8.93;8.00;;;20.10;99.90;;;;;;5064340;28;20670;-75
2022/06/26 05:28:27;;;;;;;10.18;8.00;;;20.20;99.90;;;;;;5061411;28;20194;-75
2022/06/26 05:31:11;;;;;;;9.95;8.52;;;20.20;99.90;;;;;;5069719;28;20178;-77
2022/06/26 05:33:55;;;;;;;8.80;8.00;;;20.30;99.90;;;;;;5066946;28;20222;-74
2022/06/26 05:36:39;;;;;;;9.65;8.43;;;20.30;99.90;;;;;;5065860;28;20182;-76
2022/06/26 05:39:24;;;;;;;10.32;8.68;;;20.30;99.90;;;;;;5061608;28;20230;-76
2022/06/26 05:42:08;;;;;;;9.05;8.15;;;20.40;99.90;;;;;;5069191;28;20220;-76
2022/06/26 05:44:52;;;;;;;9.25;8.20;;;20.40;99.90;;;;;;5067571;28;20183;-75
2022/06/26 05:47:36;;;;;;;8.73;7.72;;;20.50;99.90;;;;;;5069163;28;20185;-75
2022/06/26 05:50:21;;;;;;;10.23;8.00;;;20.50;99.90;;;;;;5062444;28;20194;-76
2022/06/26 05:53:05;;;;;;;9.93;8.88;;;20.50;99.90;;;;;;5070580;28;20269;-77
2022/06/26 05:55:49;;;;;;;9.95;8.88;;;20.50;99.90;;;;;;5074141;28;20205;-75
2022/06/26 05:58:34;;;;;;;9.45;8.38;;;20.60;99.90;;;;;;5064566;28;20319;-77
2022/06/26 06:01:18;;;;;;;13.20;8.52;;;20.60;99.90;;;;;;5064736;28;20178;-73
2022/06/26 06:04:03;;;;;;;9.30;8.30;;;20.60;99.90;;;;;;5071339;28;20186;-74
2022/06/26 06:06:46;;;;;;;8.90;8.00;;;20.60;99.90;;;;;;5065826;28;20181;-73
2022/06/26 06:09:31;;;;;;;10.95;8.32;;;20.60;99.90;;;;;;5067413;28;20209;-74
2022/06/26 06:12:16;;;;;;;9.43;8.18;;;20.60;99.90;;;;;;5062604;28;20260;-73
2022/06/26 06:15:01;;;;;;;9.63;8.65;;;20.60;99.90;;;;;;5064253;28;20251;-73
2022/06/26 06:17:46;;;;;;;13.95;9.02;;;20.70;99.90;;;;;;5069909;28;20265;-73
2022/06/26 06:20:30;;;;;;;9.75;8.77;;;20.70;99.90;;;;;;5068555;28;20217;-73
2022/06/26 06:23:14;;;;;;;10.13;9.13;;;20.80;99.90;;;;;;5070279;28;20204;-73
2022/06/26 06:25:58;;;;;;;9.35;8.48;;;20.80;99.90;;;;;;5068009;28;20189;-73
2022/06/26 06:28:42;;;;;;;8.35;7.68;;;20.80;99.90;;;;;;5067678;28;20202;-73
2022/06/26 06:31:26;;;;;;;11.60;7.82;;;20.90;99.90;;;;;;5067389;28;20190;-74
2022/06/26 06:34:10;;;;;;;9.55;8.65;;;20.90;99.90;;;;;;5061512;28;20243;-75
2022/06/26 06:36:55;;;;;;;8.50;7.45;;;21.00;99.90;;;;;;5061893;28;20665;-74
2022/06/26 06:39:39;;;;;;;11.30;7.95;;;21.00;99.90;;;;;;5060184;28;20198;-73
2022/06/26 06:42:23;;;;;;;8.98;7.95;;;21.00;99.90;;;;;;5072608;28;20649;-73
2022/06/26 06:45:08;;;;;;;9.85;8.88;;;21.00;99.90;;;;;;5064827;28;20194;-76
2022/06/26 06:47:52;;;;;;;11.40;8.27;;;21.10;99.90;;;;;;5067585;28;20225;-75
2022/06/26 06:50:37;;;;;;;10.20;9.20;;;21.10;99.90;;;;;;5064530;28;20190;-74
2022/06/26 06:53:21;;;;;;;9.75;8.85;;;21.20;99.90;;;;;;5066685;28;20213;-74
2022/06/26 06:56:05;;;;;;;10.23;8.93;;;21.20;99.90;;;;;;5066167;28;20425;-75
2022/06/26 06:58:49;;;;;;;10.32;8.77;;;21.20;99.90;;;;;;5066656;28;20245;-74
2022/06/26 07:01:33;;;;;;;9.05;8.23;;;21.20;99.90;;;;;;5061594;28;20708;-74
2022/06/26 07:04:18;;;;;;;8.88;8.18;;;21.20;99.90;;;;;;5070350;28;20224;-74
2022/06/26 07:07:04;;;;;;;9.73;8.73;;;21.30;99.90;;;;;;5067806;28;20229;-74
2022/06/26 07:09:48;;;;;;;10.02;8.98;;;21.40;99.90;;;;;;5064363;28;20209;-74
2022/06/26 07:12:32;;;;;;;11.02;8.75;;;21.40;99.90;;;;;;5066265;28;20263;-74
2022/06/26 07:15:16;;;;;;;10.30;8.48;;;21.40;99.90;;;;;;5066857;28;20652;-73
2022/06/26 07:18:00;;;;;;;9.27;8.38;;;21.50;99.90;;;;;;5068113;28;20193;-74
2022/06/26 07:20:44;;;;;;;9.45;8.35;;;21.50;99.90;;;;;;5064140;28;20631;-74
2022/06/26 07:23:28;;;;;;;9.30;8.38;;;21.60;99.90;;;;;;5065927;28;20205;-75
2022/06/26 07:26:12;;;;;;;10.45;8.98;;;21.60;99.90;;;;;;5068568;28;20563;-74
2022/06/26 07:28:56;;;;;;;9.45;8.55;;;21.60;99.90;;;;;;5064489;28;20256;-73
2022/06/26 07:31:40;;;;;;;10.48;8.70;;;21.60;99.90;;;;;;5061909;28;20189;-74
2022/06/26 07:34:25;;;;;;;9.68;8.68;;;21.60;99.90;;;;;;5078412;28;20186;-75
2022/06/26 07:37:10;;;;;;;8.20;7.32;;;21.60;99.90;;;;;;5060393;28;20281;-74
2022/06/26 07:39:54;;;;;;;8.07;7.22;;;21.60;99.90;;;;;;5064725;28;20241;-74
2022/06/26 07:42:37;;;;;;;8.50;7.50;;;21.70;99.90;;;;;;5061094;28;20213;-74
2022/06/26 07:45:21;;;;;;;9.20;7.03;;;21.70;99.90;;;;;;5072248;28;20261;-75
2022/06/26 07:48:06;;;;;;;7.80;6.88;;;21.70;99.90;;;;;;5066840;28;20860;-74
2022/06/26 07:50:50;;;;;;;8.18;7.47;;;21.80;99.90;;;;;;5067465;28;20328;-74
2022/06/26 07:53:36;;;;;;;7.57;6.85;;;21.80;99.90;;;;;;5063767;28;20304;-74
2022/06/26 07:56:21;;;;;;;6.60;5.90;;;21.90;99.90;;;;;;5063291;28;20244;-74
2022/06/26 07:59:05;;;;;;;6.45;5.85;;;22.00;99.90;;;;;;5065519;28;20238;-75
2022/06/26 08:01:49;;;;;;;7.35;5.63;;;22.10;99.90;;;;;;5068014;28;20213;-73
2022/06/26 08:04:33;;;;;;;5.95;5.35;;;22.20;99.90;;;;;;5066631;28;20200;-74
2022/06/26 08:07:17;;;;;;;4.90;4.50;;;22.20;99.90;;;;;;5072550;28;20187;-74
2022/06/26 08:10:02;;;;;;;3.88;3.53;;;22.30;99.90;;;;;;5067082;28;20689;-74
2022/06/26 08:12:46;;;;;;;4.20;3.10;;;22.30;99.90;;;;;;5066980;28;20222;-75
2022/06/26 08:15:30;;;;;;;3.20;2.90;;;22.30;99.90;;;;;;5067226;28;20221;-74
2022/06/26 08:18:14;;;;;;;3.58;3.28;;;22.30;99.90;;;;;;5068882;28;20341;-74
2022/06/26 08:22:00;;;;;;;3.72;2.75;;;22.40;99.90;;;;;;5069001;28;20190;-74
2022/06/26 08:24:03;;;;;;;2.80;2.60;;;22.30;99.90;;;;;;5064343;28;20243;-75
2022/06/26 08:26:47;;;;;;;2.08;1.98;;;22.30;99.90;;;;;;5065523;28;20251;-75
2022/06/26 08:29:31;;;;;;;2.20;2.00;;;22.30;99.90;;;;;;5064127;28;20217;-75
2022/06/26 08:32:15;;;;;;;2.63;2.10;;;22.30;99.90;;;;;;5065853;28;20217;-74
2022/06/26 08:34:59;;;;;;;2.88;1.90;;;22.40;99.90;;;;;;5064507;28;20656;-75
2022/06/26 08:37:45;;;;;;;2.92;2.05;;;22.40;99.90;;;;;;5066762;28;20562;-74
2022/06/26 08:40:30;;;;;;;2.00;1.90;;;22.40;99.90;;;;;;5067305;28;20232;-74
2022/06/26 08:43:20;;;;;;;2.78;2.00;;;22.50;99.90;;;;;;5060294;28;20221;-75
2022/06/26 08:46:05;;;;;;;2.20;2.00;;;22.50;99.90;;;;;;5060653;28;20207;-74
2022/06/26 08:48:51;;;;;;;2.13;2.03;;;22.50;99.90;;;;;;5058292;28;20716;-77
2022/06/26 08:51:38;;;;;;;3.30;2.10;;;22.50;99.90;;;;;;5063247;28;20194;-77
2022/06/26 08:54:23;;;;;;;2.08;1.70;;;22.50;99.90;;;;;;5064245;28;20286;-77
2022/06/26 08:57:07;;;;;;;4.07;1.95;;;22.50;99.90;;;;;;5063365;28;20237;-76
2022/06/26 08:59:52;;;;;;;4.97;2.25;;;22.60;99.90;;;;;;5063409;28;20294;-76
2022/06/26 09:02:36;;;;;;;2.00;1.90;;;22.70;99.90;;;;;;5062672;28;20643;-75
2022/06/26 09:05:20;;;;;;;2.67;2.40;;;22.70;99.90;;;;;;5063276;28;20218;-75
2022/06/26 09:08:04;;;;;;;5.05;2.33;;;22.70;99.90;;;;;;5062865;28;20213;-75
2022/06/26 09:10:49;;;;;;;4.60;2.03;;;22.70;99.90;;;;;;5061560;28;20198;-76
2022/06/26 09:13:38;;;;;;;2.30;1.88;;;22.70;99.90;;;;;;5060272;28;20273;-75
2022/06/26 09:16:31;;;;;;;1.60;1.50;;;22.70;99.90;;;;;;5062981;28;20239;-77
2022/06/26 09:19:20;;;;;;;1.92;1.60;;;22.60;99.90;;;;;;5065822;28;20619;-74
2022/06/26 09:22:13;;;;;;;1.70;1.58;;;22.60;99.90;;;;;;5066355;28;20213;-76
2022/06/26 09:24:58;;;;;;;3.70;1.50;;;22.60;99.90;;;;;;5068261;28;20201;-75
2022/06/26 09:27:44;;;;;;;1.52;1.33;;;22.70;99.90;;;;;;5066736;28;20289;-76
2022/06/26 09:30:27;;;;;;;1.25;1.10;;;22.80;99.90;;;;;;5064226;28;20191;-76
2022/06/26 09:33:11;;;;;;;4.72;1.23;;;22.90;99.90;;;;;;5063498;28;20259;-76
2022/06/26 09:35:57;;;;;;;1.08;1.00;;;23.00;99.90;;;;;;5069147;28;20194;-76
2022/06/26 09:38:48;;;;;;;1.20;1.10;;;23.10;99.90;;;;;;5067169;28;20232;-75
2022/06/26 09:41:34;;;;;;;1.45;1.15;;;23.20;99.90;;;;;;5069632;28;20226;-75
2022/06/26 09:44:22;;;;;;;1.27;1.17;;;23.30;99.90;;;;;;5069972;28;20233;-75
2022/06/26 09:47:24;;;;;;;1.13;1.00;;;23.40;99.90;;;;;;5063832;28;20198;-76
2022/06/26 09:50:08;;;;;;;1.73;1.30;;;23.40;99.90;;;;;;5066898;28;20678;-75
2022/06/26 09:52:53;;;;;;;1.67;1.50;;;23.50;99.90;;;;;;5069974;28;20213;-76
2022/06/26 09:55:37;;;;;;;2.70;1.33;;;23.60;99.90;;;;;;5064883;28;20209;-76
2022/06/26 09:58:24;;;;;;;4.00;1.40;;;23.60;99.90;;;;;;5070584;28;20194;-76
2022/06/26 10:07:17;;;;;;;3.03;1.80;;;23.60;99.90;;;;;;5069844;28;20376;-76
2022/06/26 10:10:02;;;;;;;2.10;1.58;;;23.50;99.90;;;;;;5071129;28;20215;-76
2022/06/26 10:12:50;;;;;;;1.60;1.50;;;23.50;99.90;;;;;;5065458;28;20256;-75
2022/06/26 10:15:46;;;;;;;2.28;1.90;;;23.50;99.90;;;;;;5063113;28;20186;-76
2022/06/26 10:18:53;;;;;;;4.25;1.92;;;23.60;99.90;;;;;;5066872;28;20236;-75
2022/06/26 10:21:39;;;;;;;1.40;1.40;;;23.70;99.90;;;;;;5055713;28;20194;-75
2022/06/26 10:24:24;;;;;;;1.50;1.40;;;23.70;99.90;;;;;;5069506;28;20213;-76
2022/06/26 10:27:12;;;;;;;1.58;1.35;;;23.60;99.90;;;;;;5066201;28;20185;-75
2022/06/26 10:30:13;;;;;;;1.77;1.50;;;23.60;99.90;;;;;;5065995;28;20303;-76
2022/06/26 10:33:27;;;;;;;1.60;1.50;;;23.70;99.90;;;;;;5066678;28;20218;-76
2022/06/26 10:36:20;;;;;;;1.98;1.85;;;23.70;99.90;;;;;;5063264;28;20194;-76
2022/06/26 10:39:06;;;;;;;3.17;1.95;;;23.80;99.90;;;;;;5066286;28;20205;-76
2022/06/26 10:45:11;;;;;;;2.08;1.98;;;23.80;99.90;;;;;;5059735;28;20596;-76
2022/06/26 10:47:58;;;;;;;1.85;1.75;;;23.80;99.90;;;;;;5087789;28;20185;-75
2022/06/26 10:50:45;;;;;;;1.90;1.80;;;23.90;99.90;;;;;;5062714;28;20202;-75
2022/06/26 10:53:32;;;;;;;2.95;1.90;;;23.90;99.90;;;;;;5059647;28;20252;-77
2022/06/26 10:56:16;;;;;;;2.92;1.65;;;23.90;99.90;;;;;;5057540;28;20190;-75
2022/06/26 10:59:02;;;;;;;1.90;1.80;;;24.00;99.90;;;;;;5060898;28;20218;-75
2022/06/26 11:01:46;;;;;;;2.67;2.10;;;24.10;99.90;;;;;;5060761;28;20709;-76
2022/06/26 11:04:30;;;;;;;1.77;1.67;;;24.10;99.90;;;;;;5065149;28;20182;-75
2022/06/26 11:07:15;;;;;;;2.33;2.15;;;24.10;99.90;;;;;;5069216;28;20221;-76
2022/06/26 11:09:59;;;;;;;2.20;2.00;;;24.20;99.90;;;;;;5059383;28;20194;-76
2022/06/26 11:12:46;;;;;;;2.10;2.00;;;24.20;99.90;;;;;;5062837;28;20221;-75
2022/06/26 11:15:34;;;;;;;1.80;1.70;;;24.30;99.90;;;;;;5065319;28;20241;-76
2022/06/26 11:18:18;;;;;;;2.70;2.05;;;24.30;99.90;;;;;;5065434;28;20317;-76
2022/06/26 11:21:03;;;;;;;3.45;2.10;;;24.20;99.90;;;;;;5067029;28;20193;-75
2022/06/26 11:23:51;;;;;;;2.13;1.98;;;24.20;99.90;;;;;;5067044;28;20210;-75
2022/06/26 11:26:35;;;;;;;2.55;1.63;;;24.20;99.90;;;;;;5070523;28;20657;-76
2022/06/26 11:29:19;;;;;;;1.50;1.40;;;24.30;99.90;;;;;;5060515;28;20186;-75
2022/06/26 11:32:04;;;;;;;2.03;1.65;;;24.30;99.90;;;;;;5065140;28;20276;-75
2022/06/26 11:34:53;;;;;;;2.85;1.60;;;24.40;99.90;;;;;;5059700;28;20187;-76
2022/06/26 11:37:38;;;;;;;2.42;1.65;;;24.50;99.90;;;;;;5065763;28;20635;-76
2022/06/26 11:40:23;;;;;;;1.60;1.50;;;24.50;99.90;;;;;;5063630;28;20633;-76
2022/06/26 11:43:08;;;;;;;3.10;1.70;;;24.60;99.90;;;;;;5063230;28;20249;-76
2022/06/26 11:45:52;;;;;;;1.50;1.23;;;24.70;99.90;;;;;;5063607;28;20182;-76
2022/06/26 11:48:37;;;;;;;1.48;1.25;;;24.90;99.90;;;;;;5064979;28;20209;-75
2022/06/26 11:51:22;;;;;;;3.00;2.00;;;25.00;99.90;;;;;;5065392;28;20882;-75
2022/06/26 11:54:07;;;;;;;1.90;1.65;;;25.00;99.90;;;;;;5082192;28;20229;-75
2022/06/26 11:56:51;;;;;;;2.78;1.80;;;25.00;99.90;;;;;;5067914;28;20190;-76
2022/06/26 11:59:44;;;;;;;1.80;1.70;;;25.00;99.90;;;;;;5065458;28;20294;-76
2022/06/26 12:02:28;;;;;;;3.80;1.48;;;25.00;99.90;;;;;;5061371;28;20281;-75
2022/06/26 12:05:18;;;;;;;2.08;1.35;;;25.00;99.90;;;;;;5070412;28;20248;-76
2022/06/26 12:08:02;;;;;;;1.55;1.45;;;25.10;99.90;;;;;;5065746;28;20272;-76
2022/06/26 12:10:49;;;;;;;1.85;1.73;;;25.20;99.90;;;;;;5066114;28;20825;-76
2022/06/26 12:13:33;;;;;;;1.90;1.40;;;25.40;99.90;;;;;;5058643;28;20264;-76
2022/06/26 12:16:20;;;;;;;1.65;1.55;;;25.50;99.90;;;;;;5065103;28;20193;-76
2022/06/26 12:19:04;;;;;;;2.05;1.50;;;25.60;99.90;;;;;;5060299;28;20218;-76
2022/06/26 12:21:54;;;;;;;1.95;1.75;;;25.70;99.90;;;;;;5067943;28;20197;-76
2022/06/26 12:24:49;;;;;;;1.83;1.38;;;25.70;99.90;;;;;;5086576;28;20198;-76
2022/06/26 12:27:39;;;;;;;1.95;1.40;;;25.70;99.90;;;;;;5063083;28;20186;-76
2022/06/26 12:30:29;;;;;;;1.60;1.50;;;25.70;99.90;;;;;;5074498;28;20263;-75
2022/06/26 12:33:13;;;;;;;1.20;1.10;;;25.80;99.90;;;;;;5081479;28;20229;-75
2022/06/26 12:35:57;;;;;;;2.45;1.20;;;25.90;99.90;;;;;;5068852;28;20220;-76
2022/06/26 12:38:42;;;;;;;1.10;1.05;;;25.90;99.90;;;;;;5068539;28;20229;-77
2022/06/26 12:41:27;;;;;;;2.63;1.70;;;25.80;99.90;;;;;;5055392;28;20259;-76
2022/06/26 12:44:11;;;;;;;1.60;1.40;;;25.80;99.90;;;;;;5059866;28;20649;-76
2022/06/26 12:46:55;;;;;;;1.73;1.45;;;25.80;99.90;;;;;;5067633;28;20182;-76
2022/06/26 12:49:40;;;;;;;2.58;1.60;;;25.80;99.90;;;;;;5067390;28;20197;-76
2022/06/26 12:52:24;;;;;;;2.88;1.48;;;25.80;99.90;;;;;;5073745;28;20216;-76
2022/06/26 12:55:10;;;;;;;1.83;1.42;;;25.70;99.90;;;;;;5068425;28;20583;-76
2022/06/26 12:57:54;;;;;;;1.50;1.30;;;25.70;99.90;;;;;;5067612;28;20281;-77
2022/06/26 13:00:38;;;;;;;1.13;1.00;;;25.80;99.90;;;;;;5070118;28;20294;-76
2022/06/26 13:03:23;;;;;;;1.48;1.20;;;25.90;99.90;;;;;;5062464;28;20697;-76
2022/06/26 13:06:07;;;;;;;2.05;1.30;;;25.90;99.90;;;;;;5067309;28;20178;-76
2022/06/26 13:08:52;;;;;;;1.40;1.20;;;25.90;99.90;;;;;;5071696;28;20273;-76
2022/06/26 13:11:37;;;;;;;1.77;1.27;;;25.90;99.90;;;;;;5069133;28;20206;-76
2022/06/26 13:14:21;;;;;;;3.25;1.50;;;25.90;99.90;;;;;;5068309;28;20185;-76
2022/06/26 13:17:05;;;;;;;1.17;1.13;;;26.00;99.90;;;;;;5069995;28;20198;-77
2022/06/26 13:19:50;;;;;;;2.50;1.20;;;26.00;99.90;;;;;;5068992;28;20236;-77
2022/06/26 13:22:34;;;;;;;1.45;1.20;;;26.00;99.90;;;;;;5069795;28;20210;-76
2022/06/26 13:25:18;;;;;;;1.38;1.27;;;26.00;99.90;;;;;;5078349;28;20214;-76
2022/06/26 13:28:03;;;;;;;4.50;1.38;;;26.00;99.90;;;;;;5081675;28;20190;-76
2022/06/26 13:30:47;;;;;;;3.08;1.30;;;26.00;99.90;;;;;;5066928;28;20214;-77
2022/06/26 13:33:31;;;;;;;3.25;1.20;;;26.00;99.90;;;;;;5066470;28;20222;-77
2022/06/26 13:36:15;;;;;;;1.90;1.38;;;26.00;99.90;;;;;;5070218;28;20190;-77
2022/06/26 13:39:00;;;;;;;2.28;1.50;;;26.00;99.90;;;;;;5066336;28;20221;-76
2022/06/26 13:41:45;;;;;;;2.90;1.10;;;25.90;99.90;;;;;;5066193;28;20189;-76
2022/06/26 13:44:30;;;;;;;1.77;1.00;;;25.90;99.90;;;;;;5064882;28;20345;-77
2022/06/26 13:47:14;;;;;;;1.95;1.08;;;25.90;99.90;;;;;;5069031;28;20182;-76
2022/06/26 13:49:58;;;;;;;1.25;1.10;;;25.90;99.90;;;;;;5070756;28;20194;-76
2022/06/26 13:52:42;;;;;;;2.10;1.00;;;25.90;99.90;;;;;;5063068;28;20229;-76
2022/06/26 13:55:27;;;;;;;1.70;1.13;;;25.90;99.90;;;;;;5059914;28;20241;-76
2022/06/26 13:58:11;;;;;;;1.23;1.13;;;25.90;99.90;;;;;;5062219;28;20294;-77
2022/06/26 14:00:55;;;;;;;1.30;1.05;;;25.90;99.90;;;;;;5062523;28;20218;-76
2022/06/26 14:03:40;;;;;;;1.17;0.90;;;25.90;99.90;;;;;;5068616;28;20217;-76
2022/06/26 14:06:25;;;;;;;1.05;1.05;;;25.90;99.90;;;;;;5070473;28;20189;-76
2022/06/26 14:09:09;;;;;;;1.30;1.10;;;25.90;99.90;;;;;;5069802;28;20201;-77
2022/06/26 14:11:53;;;;;;;1.05;1.05;;;25.90;99.90;;;;;;5060778;28;20237;-77
2022/06/26 14:14:37;;;;;;;0.90;0.90;;;25.90;99.90;;;;;;5070185;28;20702;-76
2022/06/26 14:17:21;;;;;;;1.10;1.00;;;25.90;99.90;;;;;;5067648;28;20205;-77
2022/06/26 14:20:07;;;;;;;3.45;1.10;;;25.90;99.90;;;;;;5068971;28;20210;-76
2022/06/26 14:25:58;;;;;;;3.85;1.08;;;25.90;99.90;;;;;;5067634;28;20355;-77
2022/06/26 14:28:42;;;;;;;1.85;0.90;;;25.90;99.90;;;;;;5066892;28;20189;-76
2022/06/26 14:31:27;;;;;;;2.80;0.98;;;25.90;99.90;;;;;;5066479;28;20648;-76
2022/06/26 14:34:11;;;;;;;1.65;1.00;;;26.00;99.90;;;;;;5068602;28;20178;-76
2022/06/26 14:36:55;;;;;;;7.78;1.10;;;26.00;99.90;;;;;;5061672;28;20195;-76